Aviation Digital Data Service (ADDS)

Output produced by METARs form (2116 UTC 16 February 2019)
found at http://www.aviationweather.gov/metar/data/
 
Forecast for: WMAP (KLUANG , MY)
Text: TAF WMAP 161700Z 1618/1718 03007KT 9999 FEW018
Forecast period: 1800 to 2300 UTC 16 February 2019
Forecast type: FROM: standard forecast or significant change
Winds: from the NNE (30 degrees) at 8 MPH (7 knots; 3.6 m/s)
Visibility: 6 or more miles 10+ km)
Ceiling: at least 12,000 feet AGL
Clouds: few clouds at 1800 feet AGL
Weather: no significant weather forecast for this period
Text: BECMG 1623/1701 01009KT FEW008
Forecast period: 2300 UTC 16 February 2019 to 0200 UTC 17 February 2019
Forecast type: BECOMING: Conditions expected to become as follows by 0100 UTC 17 February 2019
Winds: from the N (10 degrees) at 10 MPH (9 knots; 4.6 m/s)
Visibility: 6 or more miles 10+ km)
Ceiling: at least 12,000 feet AGL
Clouds: few clouds at 800 feet AGL
Weather: no significant weather forecast for this period
Text: BECMG 1702/1704 VRB03KT FEW018
Forecast period: 0200 to 1800 UTC 17 February 2019
Forecast type: BECOMING: Conditions expected to become as follows by 0400 UTC 17 February 2019
Winds: variable direction winds at 3 MPH (3 knots; 1.5 m/s)
Visibility: 6 or more miles 10+ km)
Ceiling: at least 12,000 feet AGL
Clouds: few clouds at 1800 feet AGL
Weather: no significant weather forecast for this period